createdAt,value
2023-04-16T00:00:05.090Z,96.73
2023-04-16T00:02:41.855Z,96.94
2023-04-16T00:05:12.103Z,96.50
2023-04-16T00:07:43.223Z,96.55
2023-04-16T00:10:13.394Z,96.39
2023-04-16T00:12:46.393Z,96.17
2023-04-16T00:15:18.106Z,96.17
2023-04-16T00:17:48.215Z,96.32
2023-04-16T00:20:18.432Z,95.96
2023-04-16T00:22:48.714Z,95.85
2023-04-16T00:25:18.405Z,95.13
2023-04-16T00:27:48.231Z,95.40
2023-04-16T00:30:18.316Z,95.58
2023-04-16T00:32:48.536Z,95.51
2023-04-16T00:35:18.177Z,95.22
2023-04-16T00:37:47.977Z,94.83
2023-04-16T00:40:20.445Z,94.92
2023-04-16T00:42:50.467Z,94.91
2023-04-16T00:45:20.638Z,95.03
2023-04-16T00:47:50.490Z,94.94
2023-04-16T00:50:20.421Z,95.21
2023-04-16T00:52:50.498Z,94.81
2023-04-16T00:55:22.810Z,94.95
2023-04-16T00:57:52.953Z,95.14
2023-04-16T01:00:23.286Z,95.15
2023-04-16T01:02:55.034Z,95.66
2023-04-16T01:05:25.190Z,95.10
2023-04-16T01:07:55.296Z,95.04
2023-04-16T01:10:25.337Z,95.05
2023-04-16T01:12:55.273Z,95.79
2023-04-16T01:15:25.473Z,95.48
2023-04-16T01:17:55.544Z,95.18
2023-04-16T01:20:25.698Z,95.64
2023-04-16T01:22:55.530Z,95.65
2023-04-16T01:25:25.791Z,94.92
2023-04-16T01:27:56.025Z,95.54
2023-04-16T01:30:26.409Z,95.75
2023-04-16T01:33:13.609Z,95.85
2023-04-16T01:35:44.031Z,95.47
2023-04-16T01:38:14.080Z,95.38
2023-04-16T01:40:44.291Z,95.44
2023-04-16T01:43:15.016Z,95.59
2023-04-16T01:45:44.735Z,95.31
2023-04-16T01:48:14.691Z,95.71
2023-04-16T01:50:44.396Z,95.31
2023-04-16T01:53:14.137Z,95.86
2023-04-16T01:55:44.681Z,95.36
2023-04-16T01:58:16.410Z,95.40
2023-04-16T02:00:46.770Z,95.41
2023-04-16T02:03:18.874Z,95.74
2023-04-16T02:05:49.185Z,95.72
2023-04-16T02:08:19.628Z,95.80
2023-04-16T02:10:52.108Z,95.99
2023-04-16T02:13:22.406Z,95.83
2023-04-16T02:15:52.941Z,96.27
2023-04-16T02:18:40.773Z,95.71
2023-04-16T02:21:10.866Z,95.95
2023-04-16T02:23:42.590Z,95.96
2023-04-16T02:26:14.717Z,95.85
2023-04-16T02:28:45.240Z,96.49
2023-04-16T02:31:19.117Z,96.37
2023-04-16T02:33:50.895Z,96.68
2023-04-16T02:36:21.059Z,96.98
2023-04-16T02:38:51.263Z,97.27
2023-04-16T02:41:21.024Z,96.51
2023-04-16T02:43:51.058Z,96.77
2023-04-16T02:46:21.274Z,96.92
2023-04-16T02:48:53.117Z,97.14
2023-04-16T02:51:23.304Z,97.08
2023-04-16T02:53:53.353Z,97.14
2023-04-16T02:56:23.490Z,96.90
2023-04-16T02:58:54.303Z,97.08
2023-04-16T03:01:24.386Z,97.37
2023-04-16T03:03:54.373Z,97.32
2023-04-16T03:06:24.690Z,97.60
2023-04-16T03:08:54.348Z,97.37
2023-04-16T03:11:24.863Z,98.03
2023-04-16T03:13:55.128Z,98.11
2023-04-16T03:16:25.353Z,98.20
2023-04-16T03:18:56.222Z,97.96
2023-04-16T03:21:27.118Z,98.08
2023-04-16T03:23:57.388Z,97.74
2023-04-16T03:26:26.963Z,97.33
2023-04-16T03:28:57.744Z,97.63
2023-04-16T03:31:27.924Z,97.20
2023-04-16T03:33:57.872Z,96.79
2023-04-16T03:36:28.409Z,97.27
2023-04-16T03:38:59.343Z,97.06
2023-04-16T03:41:30.624Z,97.31
2023-04-16T03:44:01.769Z,97.26
2023-04-16T03:46:32.280Z,97.26
2023-04-16T03:49:02.744Z,97.10
2023-04-16T03:51:32.422Z,96.92
2023-04-16T03:54:02.219Z,96.72
2023-04-16T03:56:32.908Z,97.27
2023-04-16T03:59:03.126Z,96.83
2023-04-16T04:01:33.093Z,96.89
2023-04-16T04:04:05.835Z,97.20
2023-04-16T04:06:35.582Z,96.62
2023-04-16T04:09:05.554Z,97.30
2023-04-16T04:11:35.927Z,96.86
2023-04-16T04:14:09.435Z,97.32
2023-04-16T04:16:39.645Z,96.99
2023-04-16T04:19:09.994Z,96.67
2023-04-16T04:21:40.609Z,97.02
2023-04-16T04:24:12.362Z,97.40
2023-04-16T04:26:42.848Z,97.41
2023-04-16T04:29:13.122Z,97.20
2023-04-16T04:31:42.677Z,96.73
2023-04-16T04:34:12.612Z,97.22
2023-04-16T04:36:42.726Z,97.78
2023-04-16T04:39:15.580Z,97.85
2023-04-16T04:41:46.669Z,98.01
2023-04-16T04:44:17.073Z,98.06
2023-04-16T04:46:47.304Z,97.91
2023-04-16T04:49:17.630Z,98.24
2023-04-16T04:51:48.102Z,98.38
2023-04-16T04:54:18.295Z,98.54
2023-04-16T04:56:48.512Z,98.39
2023-04-16T04:59:18.150Z,97.89
2023-04-16T05:01:48.147Z,98.09
2023-04-16T05:04:18.398Z,99.07
2023-04-16T05:06:47.998Z,98.58
2023-04-16T05:09:18.564Z,98.92
2023-04-16T05:11:48.724Z,99.02
2023-04-16T05:14:18.723Z,99.15
2023-04-16T05:16:48.977Z,98.78
2023-04-16T05:19:19.480Z,98.74
2023-04-16T05:21:49.611Z,98.73
2023-04-16T05:24:19.740Z,98.82
2023-04-16T05:26:49.662Z,98.68
2023-04-16T05:29:35.202Z,98.73
2023-04-16T05:32:05.478Z,98.69
2023-04-16T05:34:35.053Z,98.41
2023-04-16T05:37:05.046Z,98.88
2023-04-16T05:39:35.228Z,98.86
2023-04-16T05:42:05.713Z,99.22
2023-04-16T05:44:36.161Z,98.82
2023-04-16T05:47:06.618Z,99.10
2023-04-16T05:49:40.791Z,99.06
2023-04-16T05:52:11.226Z,98.89
2023-04-16T05:54:41.397Z,98.98
2023-04-16T05:57:11.859Z,99.18
2023-04-16T05:59:43.250Z,99.52
2023-04-16T06:02:13.551Z,99.69
2023-04-16T06:04:43.749Z,99.56
2023-04-16T06:07:13.622Z,99.46
2023-04-16T06:09:43.904Z,99.22
2023-04-16T06:12:13.470Z,98.74
2023-04-16T06:14:43.300Z,99.41
2023-04-16T06:17:13.545Z,99.59
2023-04-16T06:19:44.133Z,99.99
2023-04-16T06:22:14.413Z,99.96
2023-04-16T06:24:44.481Z,99.89
2023-04-16T06:27:15.388Z,99.40
2023-04-16T06:29:45.605Z,99.79
2023-04-16T06:32:15.770Z,99.71
2023-04-16T06:34:45.694Z,99.70
2023-04-16T06:37:15.559Z,99.60
2023-04-16T06:39:45.506Z,99.32
2023-04-16T06:42:15.571Z,99.42
2023-04-16T06:44:45.876Z,99.65
2023-04-16T06:47:16.138Z,99.33
2023-04-16T06:49:46.203Z,99.54
2023-04-16T06:52:16.513Z,99.72
2023-04-16T06:54:46.151Z,98.94
2023-04-16T06:57:15.890Z,98.72
2023-04-16T06:59:46.005Z,98.84
2023-04-16T07:02:16.844Z,99.55
2023-04-16T07:04:47.473Z,99.81
2023-04-16T07:07:17.626Z,99.42
2023-04-16T07:09:47.744Z,99.00
2023-04-16T07:12:17.719Z,98.88
2023-04-16T07:14:48.464Z,99.14
2023-04-16T07:17:19.432Z,98.97
2023-04-16T07:19:49.569Z,99.13
2023-04-16T07:22:19.643Z,99.07
2023-04-16T07:24:49.517Z,98.90
2023-04-16T07:27:19.558Z,98.88
2023-04-16T07:29:54.055Z,98.82
2023-04-16T07:32:24.751Z,98.99
2023-04-16T07:34:54.920Z,99.20
2023-04-16T07:37:25.916Z,98.87
2023-04-16T07:39:58.634Z,99.05
2023-04-16T07:42:29.745Z,98.91
2023-04-16T07:44:59.820Z,98.77
2023-04-16T07:47:29.708Z,99.19
2023-04-16T07:49:59.586Z,98.95
2023-04-16T07:52:29.487Z,98.87
2023-04-16T07:54:59.594Z,99.54
2023-04-16T07:57:29.731Z,99.60
2023-04-16T07:59:59.681Z,99.71
2023-04-16T08:02:30.075Z,99.47
2023-04-16T08:05:00.317Z,99.33
2023-04-16T08:07:30.848Z,99.44
2023-04-16T08:10:02.031Z,99.78
2023-04-16T08:12:32.254Z,99.96
2023-04-16T08:15:02.504Z,99.92
2023-04-16T08:17:32.722Z,99.99
2023-04-16T08:20:02.957Z,99.81
2023-04-16T08:22:33.101Z,99.99
2023-04-16T08:25:03.159Z,99.99
2023-04-16T08:27:33.214Z,99.99
2023-04-16T08:30:03.285Z,99.99
2023-04-16T08:32:33.492Z,99.99
2023-04-16T08:35:03.768Z,99.99
2023-04-16T08:37:33.908Z,99.99
2023-04-16T08:40:04.589Z,99.99
2023-04-16T08:42:38.226Z,99.99
2023-04-16T08:45:18.175Z,99.99
2023-04-16T08:47:50.750Z,99.99
2023-04-16T08:50:30.272Z,99.99
2023-04-16T08:53:05.114Z,99.99
2023-04-16T08:55:44.891Z,99.99
2023-04-16T08:58:21.895Z,99.99
2023-04-16T09:00:52.492Z,99.99
2023-04-16T09:03:23.812Z,99.99
2023-04-16T09:05:54.769Z,99.99
2023-04-16T09:08:25.246Z,99.99
2023-04-16T09:10:57.144Z,99.99
2023-04-16T09:13:27.821Z,99.99
2023-04-16T09:15:58.499Z,99.99
2023-04-16T09:18:29.826Z,99.99
2023-04-16T09:21:00.045Z,99.99
2023-04-16T09:23:31.333Z,99.99
2023-04-16T09:26:01.805Z,99.99
2023-04-16T09:28:49.567Z,99.99
2023-04-16T09:31:21.643Z,99.99
2023-04-16T09:34:05.172Z,99.99
2023-04-16T09:36:36.169Z,99.99
2023-04-16T09:39:06.393Z,99.99
2023-04-16T09:41:40.756Z,99.99
2023-04-16T09:44:10.867Z,99.99
2023-04-16T09:46:44.515Z,99.99
2023-04-16T09:49:20.001Z,99.99
2023-04-16T09:51:55.654Z,99.99
2023-04-16T09:54:27.889Z,99.99
2023-04-16T09:56:59.140Z,99.99
2023-04-16T09:59:35.110Z,99.99
2023-04-16T10:02:14.813Z,99.99
2023-04-16T10:04:54.719Z,99.99
2023-04-16T10:07:29.249Z,99.99
2023-04-16T10:10:00.614Z,99.99
2023-04-16T10:12:33.830Z,99.99
2023-04-16T10:15:04.068Z,99.99
2023-04-16T10:17:35.156Z,99.99
2023-04-16T10:20:07.474Z,99.99
2023-04-16T10:22:38.226Z,99.99
2023-04-16T10:25:10.259Z,99.99
2023-04-16T10:27:41.556Z,99.99
2023-04-16T10:30:13.254Z,99.99
2023-04-16T10:32:44.132Z,99.99
2023-04-16T10:35:20.724Z,99.99
2023-04-16T10:37:50.373Z,99.99
2023-04-16T10:40:27.972Z,99.99
2023-04-16T10:43:00.001Z,99.99
2023-04-16T10:45:38.786Z,99.99
2023-04-16T10:48:13.047Z,99.99
2023-04-16T10:50:43.230Z,99.99
2023-04-16T10:53:28.306Z,99.99
2023-04-16T10:56:09.970Z,99.99
2023-04-16T10:58:40.186Z,99.99
2023-04-16T11:01:17.893Z,99.99
2023-04-16T11:03:50.960Z,99.99
2023-04-16T11:06:28.088Z,99.99
2023-04-16T11:08:59.933Z,99.99
2023-04-16T11:11:40.465Z,99.99
2023-04-16T11:14:12.369Z,99.99
2023-04-16T11:16:43.292Z,99.99
2023-04-16T11:19:18.891Z,99.99
2023-04-16T11:21:50.795Z,99.99
2023-04-16T11:24:20.868Z,99.99
2023-04-16T11:26:54.001Z,99.77
2023-04-16T11:29:24.117Z,99.54
2023-04-16T11:31:55.538Z,99.12
2023-04-16T11:34:27.166Z,99.44
2023-04-16T11:36:57.309Z,99.37
2023-04-16T11:39:27.465Z,98.27
2023-04-16T11:41:57.704Z,97.62
2023-04-16T11:44:29.371Z,97.68
2023-04-16T11:46:59.629Z,97.90
2023-04-16T11:49:30.054Z,97.28
2023-04-16T11:52:00.557Z,97.38
2023-04-16T11:54:35.873Z,96.51
2023-04-16T11:57:06.710Z,96.24
2023-04-16T11:59:38.164Z,95.43
2023-04-16T12:02:48.408Z,94.21
2023-04-16T12:05:42.490Z,95.14
2023-04-16T12:08:14.371Z,94.68
2023-04-16T12:10:57.203Z,95.06
2023-04-16T12:13:27.339Z,94.87
2023-04-16T12:15:58.333Z,94.67
2023-04-16T12:18:28.817Z,94.53
2023-04-16T12:20:59.043Z,94.50
2023-04-16T12:23:29.768Z,94.70
2023-04-16T12:26:03.487Z,95.03
2023-04-16T12:28:37.780Z,94.75
2023-04-16T12:31:08.669Z,94.56
2023-04-16T12:33:38.890Z,93.25
2023-04-16T12:36:21.307Z,93.98
2023-04-16T12:38:51.349Z,93.54
2023-04-16T12:41:21.698Z,93.68
2023-04-16T12:43:51.996Z,93.63
2023-04-16T12:46:21.625Z,93.58
2023-04-16T12:48:51.608Z,92.71
2023-04-16T12:51:22.449Z,92.79
2023-04-16T12:53:52.716Z,91.89
2023-04-16T12:56:22.426Z,91.91
2023-04-16T12:58:53.182Z,91.39
2023-04-16T13:01:24.448Z,91.45
2023-04-16T13:03:54.737Z,91.06
2023-04-16T13:06:25.104Z,91.11
2023-04-16T13:08:55.524Z,90.61
2023-04-16T13:11:25.613Z,89.48
2023-04-16T13:13:55.635Z,89.63
2023-04-16T13:16:25.437Z,89.49
2023-04-16T13:18:55.292Z,87.99
2023-04-16T13:21:25.010Z,88.73
2023-04-16T13:23:55.576Z,87.95
2023-04-16T13:26:25.682Z,88.22
2023-04-16T13:28:55.791Z,88.82
2023-04-16T13:31:27.780Z,88.69
2023-04-16T13:33:57.969Z,87.07
2023-04-16T13:36:28.591Z,88.07
2023-04-16T13:38:58.600Z,87.11
2023-04-16T13:41:28.670Z,87.37
2023-04-16T13:43:59.006Z,87.59
2023-04-16T13:46:30.204Z,86.98
2023-04-16T13:49:00.287Z,86.87
2023-04-16T13:51:30.422Z,86.59
2023-04-16T13:54:00.086Z,87.44
2023-04-16T13:56:30.174Z,86.10
2023-04-16T13:58:59.829Z,83.94
2023-04-16T14:01:30.156Z,83.30
2023-04-16T14:04:02.709Z,82.53
2023-04-16T14:06:33.426Z,82.83
2023-04-16T14:09:03.643Z,80.65
2023-04-16T14:11:34.166Z,80.42
2023-04-16T14:14:04.496Z,81.64
2023-04-16T14:16:34.065Z,81.77
2023-04-16T14:19:04.091Z,81.97
2023-04-16T14:21:33.686Z,81.17
2023-04-16T14:24:04.379Z,80.15
2023-04-16T14:26:34.487Z,80.35
2023-04-16T14:29:04.158Z,80.63
2023-04-16T14:31:34.637Z,78.41
2023-04-16T14:34:04.904Z,79.17
2023-04-16T14:36:34.993Z,80.06
2023-04-16T14:39:06.012Z,78.61
2023-04-16T14:41:36.907Z,79.07
2023-04-16T14:44:08.020Z,79.87
2023-04-16T14:46:39.652Z,80.38
2023-04-16T14:49:12.126Z,79.69
2023-04-16T14:51:43.282Z,78.65
2023-04-16T14:54:13.490Z,77.83
2023-04-16T14:56:44.041Z,75.36
2023-04-16T14:59:14.226Z,76.09
2023-04-16T15:01:44.823Z,76.70
2023-04-16T15:04:15.778Z,75.95
2023-04-16T15:06:46.667Z,75.92
2023-04-16T15:09:17.028Z,76.19
2023-04-16T15:11:47.384Z,76.17
2023-04-16T15:14:18.319Z,76.89
2023-04-16T15:16:49.777Z,77.75
2023-04-16T15:19:19.999Z,79.43
2023-04-16T15:21:50.318Z,78.54
2023-04-16T15:24:20.498Z,80.36
2023-04-16T15:26:50.615Z,80.26
2023-04-16T15:29:21.234Z,81.02
2023-04-16T15:31:51.607Z,79.50
2023-04-16T15:34:22.828Z,79.28
2023-04-16T15:36:53.288Z,79.07
2023-04-16T15:39:23.628Z,80.21
2023-04-16T15:42:01.456Z,79.20
2023-04-16T15:44:32.893Z,80.25
2023-04-16T15:47:02.918Z,78.13
2023-04-16T15:49:32.536Z,79.48
2023-04-16T15:52:02.657Z,78.24
2023-04-16T15:54:33.198Z,77.88
2023-04-16T15:57:03.276Z,78.70
2023-04-16T15:59:33.924Z,78.32
2023-04-16T16:02:04.150Z,78.65
2023-04-16T16:04:35.062Z,78.88
2023-04-16T16:07:05.636Z,77.98
2023-04-16T16:09:35.779Z,78.91
2023-04-16T16:12:05.773Z,77.88
2023-04-16T16:14:37.479Z,74.99
2023-04-16T16:17:07.912Z,75.16
2023-04-16T16:19:38.158Z,75.31
2023-04-16T16:22:09.007Z,74.18
2023-04-16T16:24:39.106Z,76.29
2023-04-16T16:27:09.206Z,73.30
2023-04-16T16:29:39.297Z,72.35
2023-04-16T16:32:09.401Z,71.06
2023-04-16T16:34:39.744Z,72.69
2023-04-16T16:37:09.897Z,73.49
2023-04-16T16:39:40.147Z,70.89
2023-04-16T16:42:10.386Z,70.65
2023-04-16T16:44:40.615Z,71.69
2023-04-16T16:47:10.713Z,67.29
2023-04-16T16:49:39.991Z,68.27
2023-04-16T16:52:09.939Z,69.90
2023-04-16T16:54:40.026Z,70.49
2023-04-16T16:57:10.240Z,68.62
2023-04-16T16:59:40.299Z,70.96
2023-04-16T17:02:10.383Z,72.57
2023-04-16T17:04:40.638Z,72.96
2023-04-16T17:07:11.032Z,72.41
2023-04-16T17:09:41.575Z,72.12
2023-04-16T17:12:11.847Z,74.00
2023-04-16T17:14:42.601Z,74.82
2023-04-16T17:17:12.762Z,76.60
2023-04-16T17:19:42.562Z,76.30
2023-04-16T17:22:13.085Z,76.49
2023-04-16T17:24:43.223Z,76.87
2023-04-16T17:27:13.496Z,78.38
2023-04-16T17:29:43.544Z,79.49
2023-04-16T17:32:13.601Z,79.82
2023-04-16T17:34:43.732Z,77.53
2023-04-16T17:37:13.549Z,72.30
2023-04-16T17:39:43.794Z,67.02
2023-04-16T17:42:14.014Z,68.57
2023-04-16T17:44:44.106Z,65.55
2023-04-16T17:47:14.423Z,66.52
2023-04-16T17:49:45.445Z,69.68
2023-04-16T17:52:15.565Z,72.99
2023-04-16T17:54:45.992Z,77.43
2023-04-16T17:57:16.641Z,77.59
2023-04-16T17:59:46.819Z,75.42
2023-04-16T18:02:17.173Z,79.51
2023-04-16T18:04:47.875Z,78.79
2023-04-16T18:07:18.234Z,80.69
2023-04-16T18:09:48.326Z,81.31
2023-04-16T18:12:18.499Z,81.97
2023-04-16T18:14:48.714Z,82.09
2023-04-16T18:17:19.492Z,82.14
2023-04-16T18:19:49.682Z,82.61
2023-04-16T18:22:19.822Z,82.91
2023-04-16T18:24:49.623Z,82.88
2023-04-16T18:27:19.619Z,82.89
2023-04-16T18:29:51.074Z,83.48
2023-04-16T18:32:22.738Z,83.99
2023-04-16T18:34:53.359Z,84.62
2023-04-16T18:37:23.598Z,84.77
2023-04-16T18:39:54.751Z,85.02
2023-04-16T18:42:29.320Z,85.15
2023-04-16T18:44:59.600Z,85.44
2023-04-16T18:47:29.830Z,85.68
2023-04-16T18:49:59.963Z,86.20
2023-04-16T18:52:29.656Z,86.22
2023-04-16T18:54:59.494Z,87.03
2023-04-16T18:57:30.346Z,88.12
2023-04-16T19:00:00.318Z,89.04
2023-04-16T19:02:31.238Z,88.71
2023-04-16T19:05:02.181Z,90.27
2023-04-16T19:07:32.292Z,91.04
2023-04-16T19:10:03.570Z,90.28
2023-04-16T19:12:33.959Z,93.39
2023-04-16T19:15:04.046Z,94.17
2023-04-16T19:17:36.973Z,95.97
2023-04-16T19:20:12.278Z,97.14
2023-04-16T19:22:43.747Z,98.19
2023-04-16T19:25:13.923Z,98.72
2023-04-16T19:27:44.343Z,98.26
2023-04-16T19:30:14.564Z,97.55
2023-04-16T19:32:44.963Z,97.62
2023-04-16T19:35:14.441Z,97.02
2023-04-16T19:37:44.703Z,98.70
2023-04-16T19:40:14.963Z,98.77
2023-04-16T19:42:46.527Z,97.65
2023-04-16T19:45:16.956Z,99.00
2023-04-16T19:47:49.837Z,98.97
2023-04-16T19:50:19.944Z,98.43
2023-04-16T19:52:49.858Z,97.15
2023-04-16T19:55:20.301Z,98.58
2023-04-16T19:57:50.467Z,99.49
2023-04-16T20:00:20.204Z,98.08
2023-04-16T20:02:50.300Z,98.87
2023-04-16T20:05:20.578Z,99.20
2023-04-16T20:07:52.019Z,98.60
2023-04-16T20:10:23.041Z,98.80
2023-04-16T20:12:53.210Z,98.60
2023-04-16T20:15:23.384Z,99.07
2023-04-16T20:17:53.610Z,98.24
2023-04-16T20:20:25.230Z,99.23
2023-04-16T20:22:55.450Z,99.56
2023-04-16T20:25:27.422Z,99.99
2023-04-16T20:27:57.593Z,99.99
2023-04-16T20:30:30.537Z,99.99
2023-04-16T20:33:00.671Z,99.58
2023-04-16T20:35:30.833Z,99.61
2023-04-16T20:38:06.966Z,99.14
2023-04-16T20:40:39.557Z,99.32
2023-04-16T20:43:11.455Z,99.59
2023-04-16T20:45:42.261Z,99.99
2023-04-16T20:48:13.684Z,99.81
2023-04-16T20:50:43.995Z,98.60
2023-04-16T20:53:14.180Z,98.98
2023-04-16T20:55:44.627Z,97.90
2023-04-16T20:58:14.694Z,97.97
2023-04-16T21:00:44.708Z,98.60
2023-04-16T21:03:14.427Z,97.93
2023-04-16T21:05:49.007Z,99.23
2023-04-16T21:08:19.673Z,99.90
2023-04-16T21:10:50.442Z,99.58
2023-04-16T21:13:22.092Z,98.54
2023-04-16T21:15:52.388Z,99.13
2023-04-16T21:18:22.571Z,98.60
2023-04-16T21:20:52.665Z,98.04
2023-04-16T21:23:22.737Z,99.17
2023-04-16T21:25:54.067Z,99.15
2023-04-16T21:28:24.403Z,99.04
2023-04-16T21:30:54.950Z,98.55
2023-04-16T21:33:25.171Z,98.88
2023-04-16T21:35:55.381Z,98.66
2023-04-16T21:38:25.856Z,99.25
2023-04-16T21:40:57.304Z,99.59
2023-04-16T21:43:33.409Z,99.13
2023-04-16T21:46:03.711Z,99.58
2023-04-16T21:48:33.294Z,99.21
2023-04-16T21:51:07.590Z,99.99
2023-04-16T21:53:39.738Z,99.92
2023-04-16T21:56:09.857Z,99.99
2023-04-16T21:58:39.930Z,99.59
2023-04-16T22:01:11.080Z,99.73
2023-04-16T22:03:41.536Z,99.17
2023-04-16T22:06:11.196Z,99.27
2023-04-16T22:08:41.022Z,99.58
2023-04-16T22:11:11.154Z,99.29
2023-04-16T22:13:43.212Z,98.84
2023-04-16T22:16:13.504Z,99.86
2023-04-16T22:18:43.970Z,99.65
2023-04-16T22:21:14.425Z,99.68
2023-04-16T22:23:46.904Z,99.92
2023-04-16T22:26:17.320Z,99.81
2023-04-16T22:28:46.676Z,99.39
2023-04-16T22:31:16.556Z,99.88
2023-04-16T22:33:46.490Z,99.99
2023-04-16T22:36:16.711Z,99.99
2023-04-16T22:38:46.982Z,99.99
2023-04-16T22:41:17.459Z,99.99
2023-04-16T22:43:46.916Z,99.47
2023-04-16T22:46:16.992Z,99.42
2023-04-16T22:48:47.359Z,99.49
2023-04-16T22:51:17.982Z,99.77
2023-04-16T22:53:48.152Z,99.99
2023-04-16T22:56:18.349Z,99.99
2023-04-16T22:58:50.408Z,99.99
2023-04-16T23:01:20.549Z,99.99
2023-04-16T23:03:50.624Z,99.87
2023-04-16T23:06:20.628Z,99.99
2023-04-16T23:08:50.194Z,99.99
2023-04-16T23:11:20.769Z,99.99
2023-04-16T23:13:52.340Z,99.99
2023-04-16T23:16:22.843Z,99.99
2023-04-16T23:18:53.025Z,99.99
2023-04-16T23:21:24.099Z,99.99
2023-04-16T23:23:54.610Z,99.99
2023-04-16T23:26:24.865Z,99.99
2023-04-16T23:28:55.010Z,99.99
2023-04-16T23:31:24.654Z,99.88
2023-04-16T23:33:55.367Z,99.99
2023-04-16T23:36:25.460Z,99.99
2023-04-16T23:38:55.549Z,99.99
2023-04-16T23:41:26.051Z,99.99
2023-04-16T23:43:56.510Z,99.99
2023-04-16T23:46:27.307Z,99.99
2023-04-16T23:48:57.493Z,99.99
2023-04-16T23:51:27.814Z,99.99
2023-04-16T23:53:58.106Z,99.99
2023-04-16T23:56:29.152Z,99.99
2023-04-16T23:58:59.254Z,99.99
